Rabb, Texas
Current Conditions -  °F | °C
As of 9:15 AM on Wednesday 26 Nov 2014 (Local Time) from KRBO Reporting Station
Heavy Rain Heavy Rain  
Wind Chill: 13°   Ceiling: Unl
Heat Index: 13°   Visibility: 7mi
Dew Point:   Wind: 9mph
Humidity: 64%   Direction: 220°SW
Pressure: 30.31"   Gusts: NA
Location:  27.7757°N, 97.7554°W
Report Text: KRBO 261515Z AUTO 22008KT 7SM +RA CLR 13/06 A3031 RMK AO2 T01300064
Loading
Personal Weather Stations






























Interactive Weather Map New forecast layout! Learn more

10-Day Weather Forecast

Advertisements
Track Severe Weather on mobile